Smith Reynolds Airport
KINT : now visible

Airfield :











YOU CAN JOIN US ON...

 
LOGIN :

Register | Disclaimer

   EN    FR    IT 

 









Legend :    VFR   Marginal VFR   IFR   Intensive IFR   Very Intensive IFR
Visi :
Ceiling :
>= 8 km
>= 3000ft
5 to 8 km
1000 to 3000 ft
1500m to 5 km
500 to 1000 ft
800 to 1500m
200 to 500 ft
< 800m
< 200 ft
Symbols :   Thunderstorms  Fog  Heavy snow  Heavy precipitations  Wind > 20 kt






- Airport Elevation : 969 ft
- IATA code : INT


KINT - Smith Reynolds

CURRENT METAR :
  • 260254Z AUTO 06007KT 7SM 03/03 A2993 RMK AO2 SLP138 T00330033 $

EXPIRED METARs :
  • 260206Z 05008KT 3SM BR OVC004 04/04 A2996 RMK AO2 T00440044
  • 260154Z 04008KT 2 1/2SM BR OVC004 04/04 A2996 RMK AO2 CIG 002V007 SLP147 T00440044

TAF KINT
Valid from the 26 at 02:00 until the 27 at 00:00 UTC


260226Z 2602/2624 00000KT 3SM BR OVC004
TEMPO 2602/2606 1SM -RA BR OVC002
FM260600 VRB05KT 1/2SM -DZ FG OVC002
FM260900 23003KT 1/4SM FG OVC001
FM261300 24004KT 1/2SM FG OVC002
FM261500 26005KT 1 1/2SM BR OVC003
FM261700 25005KT 4SM BR OVC003
FM262200 25007KT P6SM BKN015
KZTL FIR / North America



MET'MAP, your aeronautical weather chart ! - Copyright ORBIFLY December 2007 - Disclaimer

ORBIFLY MET'MAP TEAM :

Programming & Development : Alexandra Zaïnal
Concept & original design : Baudouin d'Aumeries
Assistance for programming : Marc-Olivier Méhu
Technical & hardware support : Manuel Goepfert

Contact : metmap@orbifly.com




SOURCES & CREDITS :

   NOAA       Earth
Advisory